Flight Track Log - Related Links

Times and Time Zones

All times are in EDT time to prevent confusion due to time zone crossing. See the CTL62 flight status page for this flight to view local times or setup timezone preferences in your user account.

Time Position Orientation Groundspeed Altitude Reporting Facility
EDT Latitude Longitude Course Direction KTS MPH feet Rate Location/Type
Wed 10:04:21 PM 40.0761 -83.0903 273° West 113 130 1,100  Level Indianapolis Center
Wed 10:05:10 PM 40.0775 -83.1314 273° West 130 150 1,900 661 Climbing Indianapolis Center
Wed 10:06:10 PM 40.0975 -83.1744 301° West 154 177 2,300 397 Climbing Indianapolis Center
Wed 10:07:11 PM 40.1175 -83.2197 300° West 143 165 2,700 738 Climbing Indianapolis Center
Wed 10:08:12 PM 40.1389 -83.2644 302° West 145 167 3,800 1,279 Climbing Indianapolis Center
Wed 10:09:13 PM 40.1422 -83.2844 282° West 81 93 5,300 984 Climbing Indianapolis Center
Wed 10:10:14 PM 40.1603 -83.3181 305° West 96 110 5,800 439 Climbing Indianapolis Center
Wed 10:11:16 PM 40.1814 -83.3561 306° West 116 133 6,200 142 Climbing Indianapolis Center
Wed 10:12:21 PM 40.2044 -83.4083 300° West 147 169 6,100 -98 Descending Indianapolis Center
Wed 10:13:18 PM 40.2242 -83.4494 302° West 145 167 6,000 -51 Descending Indianapolis Center
Wed 10:14:19 PM 40.2450 -83.4967 300° West 148 170 6,000 49 Level Indianapolis Center
Wed 10:15:20 PM 40.2658 -83.5442 300° West 149 171 6,100 49 Climbing Indianapolis Center
Wed 10:16:22 PM 40.2869 -83.5919 300° West 150 173 6,100  Level Indianapolis Center
Wed 10:17:23 PM 40.3072 -83.6403 299° West 150 173 6,100  Level Indianapolis Center
Wed 10:18:24 PM 40.3281 -83.6886 299° West 151 174 6,100  Level Indianapolis Center
Wed 10:19:25 PM 40.3494 -83.7361 301° West 151 174 6,100  Level Indianapolis Center
Wed 10:20:26 PM 40.3753 -83.7917 301° West 151 174 6,100  Level Indianapolis Center
Wed 10:21:27 PM 40.3978 -83.8386 302° West 151 174 6,100  Level Indianapolis Center
Wed 10:22:28 PM 40.4211 -83.8872 302° West 153 176 6,100  Level Indianapolis Center
Wed 10:23:29 PM 40.4428 -83.9369 300° West 155 178 6,100  Level Indianapolis Center
Wed 10:24:30 PM 40.4608 -83.9864 296° West 152 175 6,100  Level Indianapolis Center
Wed 10:25:31 PM 40.4844 -84.0350 303° West 155 178 6,100 49 Level Indianapolis Center
Wed 10:26:32 PM 40.5053 -84.0825 300° West 152 175 6,200 -49 Climbing Indianapolis Center
Wed 10:27:33 PM 40.5292 -84.1294 304° West 152 175 6,000 -98 Descending Indianapolis Center
Wed 10:28:34 PM 40.5550 -84.1739 307° West 153 176 6,000  Level Indianapolis Center
Wed 10:29:36 PM 40.5775 -84.2214 302° West 152 175 6,000  Level Indianapolis Center
Wed 10:30:37 PM 40.5994 -84.2697 301° West 152 175 6,000  Level Indianapolis Center
Wed 10:31:38 PM 40.6217 -84.3186 301° West 153 176 6,000  Level Indianapolis Center
Wed 10:32:39 PM 40.6450 -84.3664 303° West 154 177 6,000  Level Indianapolis Center
Wed 10:33:16 PM 40.6594 -84.3936 305° West 156 180 6,000  Level Chicago Center
Wed 10:34:18 PM 40.6822 -84.4411 302° West 154 177 6,000  Level Chicago Center
Wed 10:35:19 PM 40.7047 -84.4889 302° West 154 177 6,000  Level Chicago Center
Wed 10:36:20 PM 40.7286 -84.5378 303° West 156 180 6,000  Level Chicago Center
Wed 10:37:21 PM 40.7553 -84.5956 301° West 155 178 6,000  Level Chicago Center
Wed 10:38:23 PM 40.7778 -84.6461 300° West 157 181 6,000  Level Chicago Center
Wed 10:39:24 PM 40.7992 -84.6961 299° West 157 181 6,000  Level Chicago Center
Wed 10:40:25 PM 40.8203 -84.7467 299° West 157 181 6,000 49 Level Chicago Center
Wed 10:41:26 PM 40.8425 -84.7947 301° West 156 180 6,100 49 Climbing Chicago Center
Wed 10:42:28 PM 40.8647 -84.8444 301° West 157 181 6,100 -49 Level Chicago Center
Wed 10:43:29 PM 40.8881 -84.8933 302° West 157 181 6,000 -49 Descending Chicago Center
Wed 10:44:30 PM 40.9108 -84.9425 302° West 157 181 6,000  Level Chicago Center
Wed 10:45:31 PM 40.9336 -84.9911 302° West 156 180 6,000  Level Chicago Center
Wed 10:46:33 PM 40.9556 -85.0403 301° West 156 180 6,000  Level Chicago Center
Wed 10:47:34 PM 40.9817 -85.0997 300° West 156 180 6,000 49 Level Chicago Center
Wed 10:48:35 PM 41.0036 -85.1494 300° West 156 180 6,100  Climbing Chicago Center
Wed 10:49:36 PM 41.0253 -85.1994 300° West 156 180 6,000 -49 Descending Chicago Center
Wed 10:50:38 PM 41.0458 -85.2489 299° West 155 178 6,000  Level Chicago Center
Wed 10:51:39 PM 41.0675 -85.2994 300° West 156 180 6,000 49 Level Chicago Center
Wed 10:52:40 PM 41.0881 -85.3497 298° West 156 180 6,100  Climbing Chicago Center
Wed 10:53:41 PM 41.1100 -85.4014 299° West 157 181 6,000 -49 Descending Chicago Center
Wed 10:54:42 PM 41.1336 -85.4514 302° West 159 183 6,000 49 Level Chicago Center
Wed 10:55:43 PM 41.1544 -85.5044 298° West 160 184 6,100  Climbing Chicago Center
Wed 10:56:45 PM 41.1761 -85.5572 299° West 161 185 6,000 -49 Descending Chicago Center
Wed 10:57:46 PM 41.1986 -85.6092 300° West 162 186 6,000 49 Level Chicago Center
Wed 10:58:47 PM 41.2247 -85.6711 299° West 161 185 6,100  Climbing Chicago Center
Wed 10:59:49 PM 41.2456 -85.7233 298° West 160 184 6,000 -49 Descending Chicago Center
Wed 11:00:50 PM 41.2678 -85.7761 299° West 161 185 6,000  Level Chicago Center
Wed 11:01:51 PM 41.2906 -85.8272 301° West 161 185 6,000  Level Chicago Center
Wed 11:02:52 PM 41.3144 -85.8764 303° West 160 184 6,000 49 Level Chicago Center
Wed 11:03:53 PM 41.3358 -85.9300 298° West 161 185 6,100  Climbing Chicago Center
Wed 11:04:55 PM 41.3564 -85.9831 297° West 161 185 6,000 -49 Descending Chicago Center
Wed 11:05:56 PM 41.3800 -86.0344 301° West 162 186 6,000  Level Chicago Center
Wed 11:06:57 PM 41.4003 -86.0889 296° West 164 189 6,000  Level Chicago Center
Wed 11:07:58 PM 41.4219 -86.1414 299° West 163 188 6,000  Level Chicago Center
Wed 11:08:59 PM 41.4431 -86.1925 299° West 160 184 6,000  Level Chicago Center
Wed 11:10:00 PM 41.4694 -86.2550 299° West 160 184 6,000  Level Chicago Center
Wed 11:11:02 PM 41.4922 -86.3069 300° West 161 185 6,000  Level Chicago Center
Wed 11:12:03 PM 41.5133 -86.3592 298° West 160 184 6,000  Level Chicago Center
Wed 11:13:04 PM 41.5361 -86.4111 300° West 163 188 6,000  Level Chicago Center
Wed 11:14:05 PM 41.5569 -86.4633 298° West 161 185 6,000  Level Chicago Center
Wed 11:15:06 PM 41.5781 -86.5161 298° West 161 185 6,000 -195 Level Chicago Center
Wed 11:16:08 PM 41.5997 -86.5708 298° West 166 191 5,600 -390 Descending Chicago Center
Wed 11:17:09 PM 41.6247 -86.6258 301° West 174 200 5,200 -393 Descending Chicago Center
Wed 11:18:10 PM 41.6469 -86.6808 298° West 171 197 4,800 -393 Descending Chicago Center
Wed 11:19:11 PM 41.6706 -86.7422 297° West 169 194 4,400 -344 Descending Chicago Center
Wed 11:20:12 PM 41.6928 -86.7964 299° West 167 192 4,100 -197 Descending Chicago Center
Wed 11:21:13 PM 41.7150 -86.8492 299° West 165 190 4,000 -49 Descending Chicago Center
Wed 11:22:15 PM 41.7350 -86.8994 298° West 158 182 4,000  Level Chicago Center
Wed 11:23:16 PM 41.7553 -86.9503 298° West 155 178 4,000  Level Chicago Center
Wed 11:24:17 PM 41.7764 -87.0008 299° West 156 180 4,000  Level Chicago Center
Wed 11:25:18 PM 41.8006 -87.0633 297° West 158 182 4,000 49 Level Chicago Center
Wed 11:26:19 PM 41.8208 -87.1142 298° West 156 180 4,100  Climbing Chicago Center
Wed 11:27:20 PM 41.8414 -87.1653 298° West 156 180 4,000 -49 Descending Chicago Center
Wed 11:28:21 PM 41.8614 -87.2167 298° West 157 181 4,000 -246 Level Chicago Center
Wed 11:29:22 PM 41.8953 -87.2600 316° Northwest 166 191 3,500 -443 Descending Chicago Center
Wed 11:30:23 PM 41.9300 -87.3053 316° Northwest 174 200 3,100 -246 Descending Chicago Center
Wed 11:31:24 PM 41.9611 -87.3522 312° West 173 199 3,000 -246 Descending Chicago Center
Wed 11:32:25 PM 41.9881 -87.4025 306° West 170 196 2,600 -344 Descending Chicago Center
Wed 11:33:26 PM 42.0194 -87.4583 307° West 165 190 2,300 -393 Descending Chicago Center
Wed 11:34:27 PM 42.0403 -87.5058 301° West 157 181 1,800 -291 Descending Chicago Center
Wed 11:35:09 PM 42.0500 -87.5500 287° West 149 171 1,800 -122 Level Chicago TRACON
Wed 11:36:05 PM 42.0500 -87.6000 270° West 149 171 1,600 -52 Descending Chicago TRACON
Wed 11:37:05 PM 42.0667 -87.6500 294° West 142 163 1,700 -58 Climbing Chicago TRACON
Wed 11:39:32 PM 42.0936 -87.7725 287° West 145 167 1,400 -87 Descending Chicago Center
Wed 11:40:33 PM 42.1014 -87.8219 282° West 146 168 1,400 49 Level Chicago Center
Wed 11:41:34 PM 42.1053 -87.8714 276° West 144 166 1,500 98 Climbing Chicago Center

Login

Don't have an account? Register now (free) for customized features, flight alerts, and more!